Terminal Aerodrome Forecast
Issued by NWS

Home | Current Version | Previous Version | Text Only | Print | Product List | Glossary Off
Versions: 1 2 3 4 5 6 7 8 9 10 11 12 13 14

000
FTUS43 KICT 140500
TAFRSL
TAF
KRSL 140522Z 1406/1506 36022G31KT P6SM SCT025 OVC035
      TEMPO 1406/1409 5SM -SN BKN025
     FM140900 35022G31KT P6SM SCT030 BKN060
     FM141800 34017G25KT P6SM SCT120=

USA.gov is the U.S. government's official web portal to all federal, state and local government web resources and services.